Time;durP1;ratioP1;P1;durP2;ratioP2;P2;SDS_P1;SDS_P2;PMS_P1;PMS_P2;Temp;Humidity;BMP_temperature;BMP_pressure;BME280_temperature;BME280_humidity;BME280_pressure;Samples;Min_cycle;Max_cycle;Signal;HPM_P1;HPM_P2
2023/08/05 00:00:58;;;;;;;;;;;26.60;56.00;;;;;;5045377;28;42967;-80
2023/08/05 00:03:24;;;;;;;;;;;26.70;55.30;;;;;;5027242;28;42975;-80
2023/08/05 00:05:49;;;;;;;;;;;26.70;55.20;;;;;;5030079;28;43075;-80
2023/08/05 00:08:15;;;;;;;;;;;26.60;55.30;;;;;;5038223;28;42980;-81
2023/08/05 00:10:44;;;;;;;;;;;26.60;55.00;;;;;;5045686;28;42801;-90
2023/08/05 00:13:09;;;;;;;;;;;26.60;54.80;;;;;;5043670;28;43104;-81
2023/08/05 00:15:35;;;;;;;;;;;26.60;54.80;;;;;;5043649;28;43424;-94
2023/08/05 00:18:00;;;;;;;;;;;26.60;54.80;;;;;;5043785;28;42939;-80
2023/08/05 00:20:26;;;;;;;;;;;26.60;54.90;;;;;;5044130;28;43047;-80
2023/08/05 00:22:52;;;;;;;;;;;26.60;55.40;;;;;;5044093;28;42982;-81
2023/08/05 00:25:17;;;;;;;;;;;26.60;55.10;;;;;;5044466;28;42980;-83
2023/08/05 00:27:43;;;;;;;;;;;26.60;54.80;;;;;;5041084;28;42869;-86
2023/08/05 00:30:08;;;;;;;;;;;26.50;54.70;;;;;;5044126;28;42887;-83
2023/08/05 00:32:36;;;;;;;;;;;26.50;54.70;;;;;;5045042;28;42848;-91
2023/08/05 00:35:05;;;;;;;;;;;26.50;54.70;;;;;;5043791;28;44908;-80
2023/08/05 00:37:31;;;;;;;;;;;26.50;54.60;;;;;;5040944;28;43068;-81
2023/08/05 00:39:57;;;;;;;;;;;26.50;54.60;;;;;;5044306;28;43366;-80
2023/08/05 00:42:22;;;;;;;;;;;26.50;54.60;;;;;;5044953;28;42945;-80
2023/08/05 00:44:48;;;;;;;;;;;26.50;54.50;;;;;;5044802;28;43358;-80
2023/08/05 00:47:16;;;;;;;;;;;26.50;54.60;;;;;;5047951;28;43023;-82
2023/08/05 00:49:41;;;;;;;;;;;26.50;54.60;;;;;;5047264;28;43435;-80
2023/08/05 00:52:07;;;;;;;;;;;26.50;54.90;;;;;;5048543;28;42916;-92
2023/08/05 00:54:33;;;;;;;;;;;26.60;54.70;;;;;;5047116;28;43032;-81
2023/08/05 00:56:58;;;;;;;;;;;26.60;54.60;;;;;;5054663;28;42856;-80
2023/08/05 00:59:24;;;;;;;;;;;26.60;54.60;;;;;;5038809;28;44162;-80
2023/08/05 01:01:50;;;;;;;;;;;26.60;54.50;;;;;;5047834;28;42993;-80
2023/08/05 01:04:15;;;;;;;;;;;26.50;54.50;;;;;;5050143;28;43413;-80
2023/08/05 01:06:41;;;;;;;;;;;26.50;54.60;;;;;;5047306;28;42962;-80
2023/08/05 01:09:07;;;;;;;;;;;26.50;54.60;;;;;;5045521;28;43665;-80
2023/08/05 01:11:33;;;;;;;;;;;26.50;54.70;;;;;;5048006;28;42959;-80
2023/08/05 01:13:58;;;;;;;;;;;26.50;54.50;;;;;;5046147;28;43689;-82
2023/08/05 01:16:24;;;;;;;;;;;26.50;54.50;;;;;;5042616;28;43064;-93
2023/08/05 01:18:50;;;;;;;;;;;26.50;54.60;;;;;;5046916;28;43400;-80
2023/08/05 01:21:19;;;;;;;;;;;26.50;54.60;;;;;;5037540;28;42990;-87
2023/08/05 01:23:57;;;;;;;;;;;26.50;54.50;;;;;;5028110;28;43375;-80
2023/08/05 01:26:23;;;;;;;;;;;26.50;54.50;;;;;;5028137;28;42985;-85
2023/08/05 01:28:49;;;;;;;;;;;26.50;54.60;;;;;;5027982;28;42851;-80
2023/08/05 01:31:15;;;;;;;;;;;26.50;54.80;;;;;;5029219;28;43019;-80
2023/08/05 01:33:41;;;;;;;;;;;26.50;54.90;;;;;;5027424;28;43565;-77
2023/08/05 01:36:07;;;;;;;;;;;26.50;54.90;;;;;;5026615;28;43022;-78
2023/08/05 01:38:33;;;;;;;;;;;26.50;55.10;;;;;;5044122;28;43824;-85
2023/08/05 01:40:58;;;;;;;;;;;26.50;55.10;;;;;;5046841;28;42876;-85
2023/08/05 01:43:24;;;;;;;;;;;26.50;54.70;;;;;;5036161;28;43197;-82
2023/08/05 01:45:49;;;;;;;;;;;26.50;55.20;;;;;;5026970;28;42886;-81
2023/08/05 01:48:15;;;;;;;;;;;26.50;55.20;;;;;;5027244;28;43871;-83
2023/08/05 01:50:40;;;;;;;;;;;26.50;55.20;;;;;;5027192;28;43043;-89
2023/08/05 01:53:06;;;;;;;;;;;26.50;55.30;;;;;;5028000;28;43382;-85
2023/08/05 01:55:31;;;;;;;;;;;26.50;55.50;;;;;;5026447;28;42922;-81
2023/08/05 01:57:57;;;;;;;;;;;26.50;55.60;;;;;;5026298;28;43104;-81
2023/08/05 02:00:22;;;;;;;;;;;26.50;55.60;;;;;;5038426;28;42929;-84
2023/08/05 02:02:48;;;;;;;;;;;26.50;55.70;;;;;;5041353;28;43302;-81
2023/08/05 02:05:13;;;;;;;;;;;26.50;55.80;;;;;;5026687;28;42797;-81
2023/08/05 02:07:39;;;;;;;;;;;26.40;55.80;;;;;;5026845;28;42852;-81
2023/08/05 02:10:04;;;;;;;;;;;26.40;55.80;;;;;;5027211;28;42824;-83
2023/08/05 02:12:30;;;;;;;;;;;26.40;55.90;;;;;;5027253;28;43528;-81
2023/08/05 02:14:55;;;;;;;;;;;26.40;56.00;;;;;;5027129;28;43079;-81
2023/08/05 02:17:21;;;;;;;;;;;26.40;56.10;;;;;;5025923;28;43763;-80
2023/08/05 02:19:47;;;;;;;;;;;26.30;56.10;;;;;;5026915;28;42798;-81
2023/08/05 02:22:12;;;;;;;;;;;26.40;56.20;;;;;;5027974;28;43911;-81
2023/08/05 02:24:38;;;;;;;;;;;26.40;56.20;;;;;;5026589;28;42936;-80
2023/08/05 02:27:03;;;;;;;;;;;26.40;56.20;;;;;;5040564;28;42982;-81
2023/08/05 02:29:29;;;;;;;;;;;26.40;56.20;;;;;;5044887;28;43039;-81
2023/08/05 02:31:54;;;;;;;;;;;26.40;56.30;;;;;;5046739;28;42980;-80
2023/08/05 02:34:20;;;;;;;;;;;26.40;56.40;;;;;;5041310;28;42990;-90
2023/08/05 02:36:45;;;;;;;;;;;26.40;56.40;;;;;;5046587;28;42797;-80
2023/08/05 02:39:12;;;;;;;;;;;26.40;56.40;;;;;;5045703;28;42947;-85
2023/08/05 02:41:37;;;;;;;;;;;26.40;56.40;;;;;;5046450;28;43002;-81
2023/08/05 02:44:03;;;;;;;;;;;26.40;56.50;;;;;;5042341;28;42890;-81
2023/08/05 02:46:29;;;;;;;;;;;26.40;56.50;;;;;;5045113;28;43648;-81
2023/08/05 02:48:54;;;;;;;;;;;26.40;56.60;;;;;;5046455;28;42788;-81
2023/08/05 02:51:20;;;;;;;;;;;26.40;56.60;;;;;;5046462;28;43064;-80
2023/08/05 02:53:45;;;;;;;;;;;26.40;56.60;;;;;;5045996;28;42938;-81
2023/08/05 02:56:11;;;;;;;;;;;26.40;56.60;;;;;;5044275;28;43503;-80
2023/08/05 02:58:36;;;;;;;;;;;26.40;56.70;;;;;;5045866;28;42988;-80
2023/08/05 03:01:08;;;;;;;;;;;26.30;56.70;;;;;;5046373;28;43023;-89
2023/08/05 03:03:35;;;;;;;;;;;26.30;56.60;;;;;;5046289;28;42860;-88
2023/08/05 03:06:00;;;;;;;;;;;26.30;56.70;;;;;;5029985;28;43130;-84
2023/08/05 03:08:26;;;;;;;;;;;26.30;56.70;;;;;;5024918;28;43032;-80
2023/08/05 03:11:01;;;;;;;;;;;26.30;56.60;;;;;;5025987;28;43566;-77
2023/08/05 03:13:26;;;;;;;;;;;26.30;56.50;;;;;;5028300;28;44347;-92
2023/08/05 03:15:53;;;;;;;;;;;26.30;56.60;;;;;;5045538;28;42766;-81
2023/08/05 03:18:18;;;;;;;;;;;26.30;56.60;;;;;;5045719;28;42954;-88
2023/08/05 03:20:44;;;;;;;;;;;26.30;56.50;;;;;;5046451;28;43377;-81
2023/08/05 03:23:10;;;;;;;;;;;26.30;56.50;;;;;;5046450;28;42856;-86
2023/08/05 03:25:36;;;;;;;;;;;26.30;56.50;;;;;;5043991;28;42950;-81
2023/08/05 03:28:01;;;;;;;;;;;26.30;56.50;;;;;;5045652;28;42910;-88
2023/08/05 03:30:27;;;;;;;;;;;26.30;56.40;;;;;;5043797;28;44498;-81
2023/08/05 03:32:52;;;;;;;;;;;26.30;56.40;;;;;;5042768;28;43599;-80
2023/08/05 03:35:18;;;;;;;;;;;26.30;56.20;;;;;;5045057;28;43629;-84
2023/08/05 03:37:45;;;;;;;;;;;26.30;56.80;;;;;;5045103;28;42754;-80
2023/08/05 03:40:10;;;;;;;;;;;26.30;56.30;;;;;;5042857;28;43869;-88
2023/08/05 03:42:36;;;;;;;;;;;26.30;56.20;;;;;;5033380;28;43179;-81
2023/08/05 03:45:03;;;;;;;;;;;26.30;56.30;;;;;;5022984;28;43031;-80
2023/08/05 03:47:28;;;;;;;;;;;26.30;56.20;;;;;;5025095;28;43019;-93
2023/08/05 03:49:54;;;;;;;;;;;26.30;56.20;;;;;;5025754;28;43353;-80
2023/08/05 03:52:19;;;;;;;;;;;26.20;56.10;;;;;;5024843;28;42959;-81
2023/08/05 03:54:45;;;;;;;;;;;26.20;56.20;;;;;;5025394;28;43582;-80
2023/08/05 03:57:10;;;;;;;;;;;26.20;56.00;;;;;;5025635;28;43198;-80
2023/08/05 03:59:36;;;;;;;;;;;26.20;56.10;;;;;;5023770;28;44728;-80
2023/08/05 04:02:01;;;;;;;;;;;26.20;56.00;;;;;;5041215;28;42761;-80
2023/08/05 04:04:27;;;;;;;;;;;26.20;56.00;;;;;;5045404;28;43461;-80
2023/08/05 04:06:53;;;;;;;;;;;26.20;56.00;;;;;;5045102;28;43006;-82
2023/08/05 04:09:20;;;;;;;;;;;26.20;56.10;;;;;;5044649;28;42913;-80
2023/08/05 04:11:48;;;;;;;;;;;26.20;56.00;;;;;;5043164;28;43363;-80
2023/08/05 04:14:15;;;;;;;;;;;26.20;56.00;;;;;;5043295;28;42991;-80
2023/08/05 04:16:41;;;;;;;;;;;26.20;55.90;;;;;;5043612;28;42860;-81
2023/08/05 04:19:07;;;;;;;;;;;26.20;55.80;;;;;;5044417;28;43305;-80
2023/08/05 04:21:40;;;;;;;;;;;26.20;55.80;;;;;;5042782;28;42901;-80
2023/08/05 04:24:09;;;;;;;;;;;26.20;55.80;;;;;;5023887;28;44454;-81
2023/08/05 04:26:35;;;;;;;;;;;26.10;55.90;;;;;;5024493;28;42939;-80
2023/08/05 04:29:01;;;;;;;;;;;26.10;55.80;;;;;;5025310;28;43218;-80
2023/08/05 04:31:27;;;;;;;;;;;26.10;55.90;;;;;;5025107;28;42881;-82
2023/08/05 04:33:52;;;;;;;;;;;26.10;55.80;;;;;;5024202;28;43332;-82
2023/08/05 04:36:18;;;;;;;;;;;26.00;55.90;;;;;;5024911;28;42927;-84
2023/08/05 04:38:43;;;;;;;;;;;26.00;56.00;;;;;;5024816;28;43697;-82
2023/08/05 04:41:09;;;;;;;;;;;26.00;56.20;;;;;;5041796;28;42958;-86
2023/08/05 04:43:34;;;;;;;;;;;26.10;56.40;;;;;;5042551;28;42940;-81
2023/08/05 04:46:00;;;;;;;;;;;26.10;56.30;;;;;;5044504;28;42922;-81
2023/08/05 04:48:25;;;;;;;;;;;26.10;56.50;;;;;;5045653;28;43030;-80
2023/08/05 04:50:51;;;;;;;;;;;26.10;56.50;;;;;;5043797;28;43746;-82
2023/08/05 04:53:16;;;;;;;;;;;26.10;56.50;;;;;;5043121;28;43352;-83
2023/08/05 04:55:41;;;;;;;;;;;26.10;56.50;;;;;;5027306;28;42855;-81
2023/08/05 04:58:08;;;;;;;;;;;26.10;56.60;;;;;;5024718;28;42866;-80
2023/08/05 05:00:34;;;;;;;;;;;26.00;56.60;;;;;;5023400;28;42982;-95
2023/08/05 05:02:59;;;;;;;;;;;26.00;56.40;;;;;;5024742;28;44728;-82
2023/08/05 05:05:25;;;;;;;;;;;26.10;56.40;;;;;;5037293;28;42870;-80
2023/08/05 05:07:50;;;;;;;;;;;26.10;56.50;;;;;;5044201;28;43522;-81
2023/08/05 05:10:17;;;;;;;;;;;26.10;56.60;;;;;;5044799;28;42865;-81
2023/08/05 05:12:42;;;;;;;;;;;26.00;56.60;;;;;;5040102;28;42976;-84
2023/08/05 05:15:08;;;;;;;;;;;26.10;57.30;;;;;;5025304;28;42959;-81
2023/08/05 05:17:34;;;;;;;;;;;26.10;56.90;;;;;;5024354;28;43047;-88
2023/08/05 05:20:00;;;;;;;;;;;26.00;56.60;;;;;;5023002;28;42858;-80
2023/08/05 05:22:26;;;;;;;;;;;26.00;56.60;;;;;;5007719;28;43696;-80
2023/08/05 05:24:51;;;;;;;;;;;26.00;56.60;;;;;;5043890;28;43045;-81
2023/08/05 05:27:17;;;;;;;;;;;26.00;56.90;;;;;;5037514;28;42998;-81
2023/08/05 05:29:44;;;;;;;;;;;26.00;56.60;;;;;;5034427;28;42930;-84
2023/08/05 05:32:10;;;;;;;;;;;26.00;56.50;;;;;;5035047;28;43955;-83
2023/08/05 05:34:35;;;;;;;;;;;26.00;56.60;;;;;;5047092;28;42871;-80
2023/08/05 05:37:00;;;;;;;;;;;26.00;56.70;;;;;;5047525;28;42903;-83
2023/08/05 05:39:26;;;;;;;;;;;26.00;56.80;;;;;;5047019;28;42939;-80
2023/08/05 05:41:52;;;;;;;;;;;26.00;56.80;;;;;;5046390;28;42931;-80
2023/08/05 05:44:18;;;;;;;;;;;26.00;56.80;;;;;;5045226;28;43224;-81
2023/08/05 05:46:44;;;;;;;;;;;26.10;56.80;;;;;;5045720;28;43725;-83
2023/08/05 05:49:12;;;;;;;;;;;26.00;56.70;;;;;;5042206;28;42933;-80
2023/08/05 05:51:38;;;;;;;;;;;26.00;56.60;;;;;;5042580;28;43375;-80
2023/08/05 05:54:03;;;;;;;;;;;26.00;56.70;;;;;;5046838;28;43014;-83
2023/08/05 05:56:30;;;;;;;;;;;26.00;56.80;;;;;;5048331;28;43934;-83
2023/08/05 05:58:56;;;;;;;;;;;26.00;56.30;;;;;;5043272;28;42778;-81
2023/08/05 06:01:23;;;;;;;;;;;25.90;56.40;;;;;;5049138;28;43841;-87
2023/08/05 06:03:50;;;;;;;;;;;25.90;56.50;;;;;;5040984;28;43066;-81
2023/08/05 06:06:15;;;;;;;;;;;25.80;58.00;;;;;;5044134;28;42899;-86
2023/08/05 06:08:42;;;;;;;;;;;26.00;59.20;;;;;;5052117;28;42748;-92
2023/08/05 06:11:07;;;;;;;;;;;25.80;58.60;;;;;;5051826;28;42785;-92
2023/08/05 06:13:34;;;;;;;;;;;25.90;58.60;;;;;;5051600;28;42751;-95
2023/08/05 06:16:00;;;;;;;;;;;25.60;58.00;;;;;;5039966;28;43570;-89
2023/08/05 06:18:26;;;;;;;;;;;25.40;57.50;;;;;;5048784;28;42764;-86
2023/08/05 06:20:51;;;;;;;;;;;25.40;57.50;;;;;;5048389;28;43140;-81
2023/08/05 06:23:17;;;;;;;;;;;25.40;57.50;;;;;;5051047;28;42987;-93
2023/08/05 06:25:44;;;;;;;;;;;25.90;59.40;;;;;;5058390;28;43845;-96
2023/08/05 06:28:09;;;;;;;;;;;25.60;57.40;;;;;;5049923;28;42963;-92
2023/08/05 06:30:36;;;;;;;;;;;26.00;58.00;;;;;;5045739;28;42818;-86
2023/08/05 06:33:01;;;;;;;;;;;25.70;56.50;;;;;;5035355;28;42964;-92
2023/08/05 06:35:27;;;;;;;;;;;25.80;58.50;;;;;;5036358;28;42922;-90
2023/08/05 06:37:52;;;;;;;;;;;25.80;57.50;;;;;;5035412;28;42923;-81
2023/08/05 06:40:18;;;;;;;;;;;25.90;57.00;;;;;;5039060;28;43817;-81
2023/08/05 06:42:43;;;;;;;;;;;25.80;58.00;;;;;;5042843;28;42973;-81
2023/08/05 06:45:09;;;;;;;;;;;25.80;56.80;;;;;;5043701;28;44052;-81
2023/08/05 06:47:35;;;;;;;;;;;25.80;56.70;;;;;;5042207;28;42936;-89
2023/08/05 06:50:06;;;;;;;;;;;25.80;59.10;;;;;;5039090;28;43047;-80
2023/08/05 06:52:32;;;;;;;;;;;25.80;57.70;;;;;;5038570;28;43330;-86
2023/08/05 06:55:00;;;;;;;;;;;25.80;57.20;;;;;;5041904;28;43906;-84
2023/08/05 06:57:26;;;;;;;;;;;25.80;58.80;;;;;;5037779;28;43007;-89
2023/08/05 06:59:51;;;;;;;;;;;25.90;57.20;;;;;;5034985;28;43215;-80
2023/08/05 07:02:17;;;;;;;;;;;25.90;57.20;;;;;;5038196;28;42932;-80
2023/08/05 07:04:42;;;;;;;;;;;25.80;57.70;;;;;;5043418;28;43521;-84
2023/08/05 07:07:08;;;;;;;;;;;25.90;57.50;;;;;;5043703;28;43019;-82
2023/08/05 07:09:33;;;;;;;;;;;25.90;58.90;;;;;;5027265;28;43003;-90
2023/08/05 07:11:59;;;;;;;;;;;25.90;57.20;;;;;;5024525;28;43570;-81
2023/08/05 07:14:25;;;;;;;;;;;25.90;57.30;;;;;;5038268;28;43504;-81
2023/08/05 07:16:51;;;;;;;;;;;25.90;57.70;;;;;;5036303;28;42940;-82
2023/08/05 07:19:16;;;;;;;;;;;25.90;57.60;;;;;;5038248;28;43783;-81
2023/08/05 07:21:42;;;;;;;;;;;26.00;58.00;;;;;;5036418;28;42965;-80
2023/08/05 07:24:07;;;;;;;;;;;25.80;57.90;;;;;;5035374;28;43977;-79
2023/08/05 07:26:33;;;;;;;;;;;26.00;57.50;;;;;;5034594;28;42873;-79
2023/08/05 07:28:58;;;;;;;;;;;26.00;57.10;;;;;;5039237;28;43563;-80
2023/08/05 07:31:24;;;;;;;;;;;26.00;57.10;;;;;;5043766;28;43028;-79
2023/08/05 07:33:51;;;;;;;;;;;26.00;57.40;;;;;;5030129;28;43771;-79
2023/08/05 07:36:16;;;;;;;;;;;25.80;58.30;;;;;;5024917;28;43035;-80
2023/08/05 07:38:44;;;;;;;;;;;26.00;57.60;;;;;;5024785;28;42888;-81
2023/08/05 07:41:14;;;;;;;;;;;26.00;57.90;;;;;;5023732;28;43040;-81
2023/08/05 07:43:42;;;;;;;;;;;25.90;61.00;;;;;;5037393;28;44011;-80
2023/08/05 07:46:08;;;;;;;;;;;25.80;56.10;;;;;;5045789;28;43017;-79
2023/08/05 07:48:39;;;;;;;;;;;25.90;56.80;;;;;;5045222;28;43015;-79
2023/08/05 07:51:08;;;;;;;;;;;25.90;57.00;;;;;;5039483;28;42957;-80
2023/08/05 07:53:35;;;;;;;;;;;25.80;57.10;;;;;;5024926;28;42936;-79
2023/08/05 07:56:10;;;;;;;;;;;25.80;56.60;;;;;;5025422;28;42989;-79
2023/08/05 07:58:39;;;;;;;;;;;25.80;55.40;;;;;;5025616;28;42989;-79
2023/08/05 08:01:05;;;;;;;;;;;25.80;55.30;;;;;;5026555;28;43029;-83
2023/08/05 08:03:31;;;;;;;;;;;25.80;54.60;;;;;;5025207;28;42777;-80
2023/08/05 08:05:57;;;;;;;;;;;25.80;54.30;;;;;;5025300;28;43104;-79
2023/08/05 08:08:23;;;;;;;;;;;25.80;54.20;;;;;;5024893;28;43600;-80
2023/08/05 08:10:48;;;;;;;;;;;25.80;53.90;;;;;;5025019;28;43055;-82
2023/08/05 08:13:14;;;;;;;;;;;25.80;53.80;;;;;;5025643;28;43700;-80
2023/08/05 08:15:39;;;;;;;;;;;25.80;53.50;;;;;;5025037;28;42773;-80
2023/08/05 08:18:05;;;;;;;;;;;25.80;53.50;;;;;;5024444;28;43746;-79
2023/08/05 08:20:30;;;;;;;;;;;25.90;53.20;;;;;;5024899;28;43010;-80
2023/08/05 08:22:56;;;;;;;;;;;25.80;53.20;;;;;;5025443;28;43523;-80
2023/08/05 08:25:21;;;;;;;;;;;25.80;53.20;;;;;;5024846;28;42968;-80
2023/08/05 08:27:47;;;;;;;;;;;25.80;52.40;;;;;;5023389;28;44730;-80
2023/08/05 08:30:12;;;;;;;;;;;25.80;53.20;;;;;;5025189;28;43171;-80
2023/08/05 08:32:38;;;;;;;;;;;25.80;53.70;;;;;;5024698;28;43424;-81
2023/08/05 08:35:04;;;;;;;;;;;25.80;54.70;;;;;;5028633;28;42894;-79
2023/08/05 08:37:29;;;;;;;;;;;25.80;55.50;;;;;;5044374;28;42991;-82
2023/08/05 08:39:55;;;;;;;;;;;25.80;56.40;;;;;;5044769;28;42982;-81
2023/08/05 08:42:21;;;;;;;;;;;25.80;56.80;;;;;;5044900;28;42768;-81
2023/08/05 08:44:48;;;;;;;;;;;25.70;57.00;;;;;;5044456;28;42866;-82
2023/08/05 08:47:15;;;;;;;;;;;25.70;57.70;;;;;;5042118;28;42943;-81
2023/08/05 08:49:41;;;;;;;;;;;25.70;57.30;;;;;;5044617;28;42974;-79
2023/08/05 08:52:07;;;;;;;;;;;25.70;57.80;;;;;;5043109;28;44313;-80
2023/08/05 08:54:33;;;;;;;;;;;25.80;57.20;;;;;;5044852;28;43007;-79
2023/08/05 08:56:59;;;;;;;;;;;25.80;57.30;;;;;;5042674;28;43850;-79
2023/08/05 08:59:24;;;;;;;;;;;26.00;59.10;;;;;;5043710;28;42850;-79
2023/08/05 09:01:51;;;;;;;;;;;25.90;59.20;;;;;;5043564;28;42829;-79
2023/08/05 09:04:18;;;;;;;;;;;25.90;58.50;;;;;;5044331;28;42982;-79
2023/08/05 09:06:46;;;;;;;;;;;25.70;58.20;;;;;;5040532;28;43014;-79
2023/08/05 09:09:12;;;;;;;;;;;25.80;58.20;;;;;;5026075;28;42834;-80
2023/08/05 09:11:37;;;;;;;;;;;25.80;57.70;;;;;;5027473;28;43977;-79
2023/08/05 09:14:03;;;;;;;;;;;25.80;57.80;;;;;;5027849;28;42974;-81
2023/08/05 09:16:29;;;;;;;;;;;25.80;58.40;;;;;;5026183;28;45112;-82
2023/08/05 09:18:55;;;;;;;;;;;25.80;57.90;;;;;;5028658;28;42822;-85
2023/08/05 09:21:24;;;;;;;;;;;25.80;58.80;;;;;;5027703;28;42747;-82
2023/08/05 09:23:52;;;;;;;;;;;25.80;58.50;;;;;;5027413;28;42907;-83
2023/08/05 09:26:31;;;;;;;;;;;25.80;58.60;;;;;;5027329;28;43837;-80
2023/08/05 09:28:58;;;;;;;;;;;25.80;58.60;;;;;;5044257;28;43684;-79
2023/08/05 09:31:23;;;;;;;;;;;25.70;58.40;;;;;;5047522;28;43863;-79
2023/08/05 09:33:49;;;;;;;;;;;25.80;58.40;;;;;;5047761;28;42959;-79
2023/08/05 09:36:15;;;;;;;;;;;25.80;58.30;;;;;;5045709;28;43790;-82
2023/08/05 09:38:41;;;;;;;;;;;25.80;58.10;;;;;;5046881;28;42887;-81
2023/08/05 09:41:07;;;;;;;;;;;25.80;59.10;;;;;;5048069;28;43645;-79
2023/08/05 09:43:34;;;;;;;;;;;25.80;58.60;;;;;;5047816;28;43030;-79
2023/08/05 09:46:04;;;;;;;;;;;25.80;57.80;;;;;;5045504;28;43499;-80
2023/08/05 09:48:39;;;;;;;;;;;25.80;58.20;;;;;;5046676;28;42949;-80
2023/08/05 09:51:05;;;;;;;;;;;25.80;57.60;;;;;;5047564;28;43023;-83
2023/08/05 09:53:34;;;;;;;;;;;25.90;58.40;;;;;;5047506;28;43000;-79
2023/08/05 09:55:59;;;;;;;;;;;25.90;57.90;;;;;;5047077;28;43046;-79
2023/08/05 09:58:25;;;;;;;;;;;25.90;57.30;;;;;;5027068;28;43012;-80
2023/08/05 10:00:51;;;;;;;;;;;25.80;57.90;;;;;;5026696;28;43725;-79
2023/08/05 10:03:18;;;;;;;;;;;25.80;57.20;;;;;;5027124;28;43102;-80
2023/08/05 10:05:44;;;;;;;;;;;25.80;57.00;;;;;;5027138;28;43526;-79
2023/08/05 10:08:11;;;;;;;;;;;25.80;57.60;;;;;;5028281;28;43071;-80
2023/08/05 10:10:38;;;;;;;;;;;25.80;57.30;;;;;;5026248;28;42892;-79
2023/08/05 10:13:08;;;;;;;;;;;25.80;57.40;;;;;;5025818;28;43038;-79
2023/08/05 10:15:38;;;;;;;;;;;25.90;57.70;;;;;;5026780;28;42947;-81
2023/08/05 10:18:07;;;;;;;;;;;25.80;56.60;;;;;;5027370;28;42880;-79
2023/08/05 10:20:36;;;;;;;;;;;25.90;56.50;;;;;;5026643;28;43768;-81
2023/08/05 10:23:05;;;;;;;;;;;25.80;55.90;;;;;;5026673;28;42940;-80
2023/08/05 10:25:46;;;;;;;;;;;25.90;55.90;;;;;;5026909;28;43629;-79
2023/08/05 10:28:24;;;;;;;;;;;26.00;55.20;;;;;;5033018;28;42827;-84
2023/08/05 10:30:50;;;;;;;;;;;26.00;55.00;;;;;;5039531;28;43890;-79
2023/08/05 10:33:16;;;;;;;;;;;25.90;54.80;;;;;;5026160;28;42869;-80
2023/08/05 10:35:42;;;;;;;;;;;25.90;55.50;;;;;;5035211;28;43564;-80
2023/08/05 10:38:08;;;;;;;;;;;25.90;55.40;;;;;;5046748;28;42908;-80
2023/08/05 10:40:37;;;;;;;;;;;25.90;54.70;;;;;;5045822;28;43065;-80
2023/08/05 10:43:02;;;;;;;;;;;25.90;55.10;;;;;;5045221;28;43026;-80
2023/08/05 10:45:28;;;;;;;;;;;26.00;54.70;;;;;;5046397;28;42977;-80
2023/08/05 10:47:53;;;;;;;;;;;26.00;56.80;;;;;;5046466;28;42931;-80
2023/08/05 10:50:19;;;;;;;;;;;25.90;55.20;;;;;;5046298;28;42839;-82
2023/08/05 10:52:45;;;;;;;;;;;25.80;55.20;;;;;;5044274;28;43050;-89
2023/08/05 10:55:12;;;;;;;;;;;25.90;55.30;;;;;;5034370;28;42968;-79
2023/08/05 10:57:38;;;;;;;;;;;25.90;56.00;;;;;;5045713;28;42967;-79
2023/08/05 11:00:04;;;;;;;;;;;25.90;55.50;;;;;;5042176;28;43786;-86
2023/08/05 11:02:31;;;;;;;;;;;26.00;56.30;;;;;;5041932;28;42935;-84
2023/08/05 11:05:09;;;;;;;;;;;25.80;56.10;;;;;;5034104;28;43067;-82
2023/08/05 11:07:37;;;;;;;;;;;25.80;55.90;;;;;;5033765;28;43006;-85
2023/08/05 11:10:04;;;;;;;;;;;25.90;56.30;;;;;;5036259;28;43587;-85
2023/08/05 11:12:29;;;;;;;;;;;25.90;56.60;;;;;;5035952;28;43346;-80
2023/08/05 11:14:56;;;;;;;;;;;25.90;57.00;;;;;;5034664;28;43623;-80
2023/08/05 11:17:21;;;;;;;;;;;25.90;56.60;;;;;;5036697;28;43107;-79
2023/08/05 11:19:54;;;;;;;;;;;25.90;56.60;;;;;;5041878;28;43847;-82
2023/08/05 11:22:25;;;;;;;;;;;25.80;56.00;;;;;;5035880;28;43057;-84
2023/08/05 11:24:56;;;;;;;;;;;26.00;56.10;;;;;;5038148;28;42856;-79
2023/08/05 11:27:32;;;;;;;;;;;30.20;58.90;;;;;;5033953;28;42970;-83
2023/08/05 11:29:57;;;;;;;;;;;26.00;56.30;;;;;;5034101;28;43037;-80
2023/08/05 11:32:23;;;;;;;;;;;25.90;56.70;;;;;;5035740;28;43073;-84
2023/08/05 11:34:50;;;;;;;;;;;26.00;56.00;;;;;;5034836;28;43671;-80
2023/08/05 11:37:22;;;;;;;;;;;25.90;56.00;;;;;;5039049;28;43115;-79
2023/08/05 11:39:47;;;;;;;;;;;26.00;56.70;;;;;;5036057;28;43902;-79
2023/08/05 11:42:13;;;;;;;;;;;26.00;56.80;;;;;;5033815;28;42882;-80
2023/08/05 11:44:38;;;;;;;;;;;26.00;57.00;;;;;;5034124;28;42915;-80
2023/08/05 11:47:04;;;;;;;;;;;26.00;57.00;;;;;;5033336;28;43054;-78
2023/08/05 11:49:30;;;;;;;;;;;26.00;56.50;;;;;;5034595;28;44049;-79
2023/08/05 11:51:55;;;;;;;;;;;26.00;57.30;;;;;;5035455;28;42960;-79
2023/08/05 11:54:31;;;;;;;;;;;26.00;57.20;;;;;;5044635;28;43489;-79
2023/08/05 11:56:57;;;;;;;;;;;25.90;56.90;;;;;;5042569;28;43070;-80
2023/08/05 11:59:41;;;;;;;;;;;26.00;57.20;;;;;;5042071;28;42962;-79
2023/08/05 12:02:07;;;;;;;;;;;25.90;56.90;;;;;;5035988;28;43016;-85
2023/08/05 12:04:40;;;;;;;;;;;25.90;57.40;;;;;;5034661;28;43774;-79
2023/08/05 12:07:05;;;;;;;;;;;25.90;57.50;;;;;;5034018;28;42990;-81
2023/08/05 12:09:31;;;;;;;;;;;25.90;57.50;;;;;;5036713;28;43606;-82
2023/08/05 12:11:57;;;;;;;;;;;25.90;57.10;;;;;;5035271;28;42944;-83
2023/08/05 12:14:24;;;;;;;;;;;25.90;57.10;;;;;;5034170;28;43865;-89
2023/08/05 12:16:52;;;;;;;;;;;26.00;57.70;;;;;;5031794;28;43045;-83
2023/08/05 12:19:18;;;;;;;;;;;26.50;58.60;;;;;;5037153;28;43162;-80
2023/08/05 12:21:43;;;;;;;;;;;26.00;58.90;;;;;;5038115;28;43159;-89
2023/08/05 12:24:09;;;;;;;;;;;25.90;56.80;;;;;;5034794;28;43810;-91
2023/08/05 12:26:36;;;;;;;;;;;26.00;56.70;;;;;;5034137;28;59987;-84
2023/08/05 12:29:02;;;;;;;;;;;25.90;57.90;;;;;;5042528;28;43606;-85
2023/08/05 12:31:29;;;;;;;;;;;26.00;56.40;;;;;;5042581;28;42986;-87
2023/08/05 12:33:55;;;;;;;;;;;26.00;57.20;;;;;;5044330;28;43506;-87
2023/08/05 12:36:21;;;;;;;;;;;26.00;56.10;;;;;;5044262;28;42979;-81
2023/08/05 12:38:48;;;;;;;;;;;26.00;56.20;;;;;;5038572;28;43673;-81
2023/08/05 12:41:14;;;;;;;;;;;25.90;56.00;;;;;;5043492;28;42837;-84
2023/08/05 12:43:40;;;;;;;;;;;26.00;56.00;;;;;;5044583;28;43020;-83
2023/08/05 12:46:05;;;;;;;;;;;26.00;55.90;;;;;;5044948;28;42967;-80
2023/08/05 12:48:31;;;;;;;;;;;26.00;56.00;;;;;;5026886;28;43130;-80
2023/08/05 12:50:56;;;;;;;;;;;26.20;57.80;;;;;;5034563;28;43056;-81
2023/08/05 12:53:22;;;;;;;;;;;26.10;58.10;;;;;;5043959;28;43710;-81
2023/08/05 12:55:47;;;;;;;;;;;25.90;57.90;;;;;;5042761;28;42957;-83
2023/08/05 12:58:13;;;;;;;;;;;25.90;56.60;;;;;;5042757;28;43306;-88
2023/08/05 13:00:39;;;;;;;;;;;25.90;57.20;;;;;;5042295;28;43037;-80
2023/08/05 13:03:04;;;;;;;;;;;26.00;58.20;;;;;;5043647;28;43107;-82
2023/08/05 13:05:30;;;;;;;;;;;25.90;56.40;;;;;;5041283;28;43026;-82
2023/08/05 13:07:55;;;;;;;;;;;25.90;57.50;;;;;;5041247;28;43304;-79
2023/08/05 13:10:21;;;;;;;;;;;26.00;56.70;;;;;;5042800;28;42952;-80
2023/08/05 13:12:46;;;;;;;;;;;26.00;56.80;;;;;;5042166;28;43849;-89
2023/08/05 13:15:12;;;;;;;;;;;26.00;56.90;;;;;;5042730;28;42931;-83
2023/08/05 13:17:38;;;;;;;;;;;26.00;57.00;;;;;;5040460;28;44544;-80
2023/08/05 13:20:04;;;;;;;;;;;25.80;56.90;;;;;;5043030;28;43080;-86
2023/08/05 13:22:29;;;;;;;;;;;22.80;55.90;;;;;;5043864;28;42722;-80
2023/08/05 13:24:59;;;;;;;;;;;26.00;58.10;;;;;;5042374;28;42989;-85
2023/08/05 13:27:27;;;;;;;;;;;25.90;57.40;;;;;;5043691;28;43503;-80
2023/08/05 13:29:53;;;;;;;;;;;25.80;57.50;;;;;;5037629;28;43166;-81
2023/08/05 13:32:18;;;;;;;;;;;25.90;57.80;;;;;;5042828;28;42992;-86
2023/08/05 13:34:44;;;;;;;;;;;25.90;58.70;;;;;;5043622;28;43059;-81
2023/08/05 13:37:10;;;;;;;;;;;26.00;59.30;;;;;;5041955;28;45058;-80
2023/08/05 13:39:35;;;;;;;;;;;26.00;57.90;;;;;;5041224;28;42954;-80
2023/08/05 13:42:01;;;;;;;;;;;25.90;58.80;;;;;;5041899;28;43110;-81
2023/08/05 13:44:26;;;;;;;;;;;26.00;59.30;;;;;;5041219;28;43507;-80
2023/08/05 13:46:52;;;;;;;;;;;26.00;59.00;;;;;;5040411;28;44488;-79
2023/08/05 13:49:18;;;;;;;;;;;26.00;57.60;;;;;;5040734;28;43117;-83
2023/08/05 13:51:43;;;;;;;;;;;26.10;57.60;;;;;;5040690;28;45578;-79
2023/08/05 13:54:10;;;;;;;;;;;26.10;57.50;;;;;;5044203;28;43042;-81
2023/08/05 13:56:36;;;;;;;;;;;26.00;57.40;;;;;;5027181;28;43349;-81
2023/08/05 13:59:02;;;;;;;;;;;26.00;58.10;;;;;;5027264;28;42996;-82
2023/08/05 14:01:27;;;;;;;;;;;26.00;57.80;;;;;;5027102;28;43063;-82
2023/08/05 14:03:53;;;;;;;;;;;26.00;58.60;;;;;;5029430;28;43072;-80
2023/08/05 14:06:19;;;;;;;;;;;26.00;58.10;;;;;;5043359;28;42936;-80
2023/08/05 14:08:44;;;;;;;;;;;26.00;58.20;;;;;;5045242;28;42944;-82
2023/08/05 14:11:10;;;;;;;;;;;25.90;59.60;;;;;;5046896;28;42949;-81